Weather at Servicentro (Electricidad de Caracas) Heliport

Public forecast

Using degrees Celsius for public forecast. Weather courtesy of forecast.io.

Closest aviation weather report (METAR) to Servicentro (Electricidad de Caracas) Heliport

Report is more than 6 hours old.

Closest report is Generalissimo Francisco de Miranda Air Base, 0.5 nm (0.9 km) E. Retrieved 2021/10/08 17:03 UTC (4 months ago):

SVFM 081703Z AUTO 17006KT NCD 28/18 Q1014

Closest aviation forecast (TAF) to Servicentro (Electricidad de Caracas) Heliport

Closest forecast is Simón Bolívar International Airport, 10.8 nm (19.9 km) NW. Retrieved 2022/01/27 06:12 UTC (2 hours ago):

TAF SVMI 270400Z 2706/2806 00000KT 9999 FEW016 TX32/2718Z TN22/2707Z TEMPO 2706/2710 CAVOK FM271100 00000KT 9999 FEW016